Time;durP1;ratioP1;P1;durP2;ratioP2;P2;SDS_P1;SDS_P2;PMS_P1;PMS_P2;Temp;Humidity;BMP_temperature;BMP_pressure;BME280_temperature;BME280_humidity;BME280_pressure;Samples;Min_cycle;Max_cycle;Signal;HPM_P1;HPM_P2
2023/04/02 00:01:19;;;;;;;5.73;5.17;;;;;;;;;;5037691;28;20228;-51
2023/04/02 00:04:02;;;;;;;5.73;4.20;;;;;;;;;;5027951;28;20256;-51
2023/04/02 00:06:43;;;;;;;5.07;4.67;;;;;;;;;;5034700;28;20339;-52
2023/04/02 00:09:24;;;;;;;4.20;3.87;;;;;;;;;;5040213;28;20811;-52
2023/04/02 00:11:53;;;;;;;6.57;4.60;;;;;;;;;;5032849;28;20228;-52
2023/04/02 00:14:22;;;;;;;5.33;4.43;;;;;;;;;;5037428;28;20242;-53
2023/04/02 00:16:49;;;;;;;6.37;4.60;;;;;;;;;;5047973;28;20330;-52
2023/04/02 00:19:18;;;;;;;5.40;4.40;;;;;;;;;;5033539;28;20325;-54
2023/04/02 00:21:46;;;;;;;7.00;4.77;;;;;;;;;;5035484;28;20243;-53
2023/04/02 00:24:15;;;;;;;4.67;4.27;;;;;;;;;;5043118;28;20239;-53
2023/04/02 00:26:44;;;;;;;4.20;3.80;;;;;;;;;;5035105;28;20238;-53
2023/04/02 00:29:11;;;;;;;8.30;4.30;;;;;;;;;;5043242;28;20239;-52
2023/04/02 00:31:39;;;;;;;5.40;4.20;;;;;;;;;;5040930;28;21165;-52
2023/04/02 00:34:07;;;;;;;6.40;4.33;;;;;;;;;;5027946;28;20245;-53
2023/04/02 00:36:34;;;;;;;6.23;4.30;;;;;;;;;;5035607;28;20246;-53
2023/04/02 00:39:03;;;;;;;4.43;4.03;;;;;;;;;;5023310;28;20248;-52
2023/04/02 00:41:30;;;;;;;4.80;4.30;;;;;;;;;;5024735;28;20594;-52
2023/04/02 00:43:58;;;;;;;4.57;4.17;;;;;;;;;;5031858;28;20246;-53
2023/04/02 00:46:28;;;;;;;4.67;4.13;;;;;;;;;;5031919;28;20243;-52
2023/04/02 00:48:58;;;;;;;4.43;4.00;;;;;;;;;;5036550;28;20365;-51
2023/04/02 00:51:27;;;;;;;4.10;3.80;;;;;;;;;;5024145;28;20229;-53
2023/04/02 00:53:54;;;;;;;4.00;3.60;;;;;;;;;;5032889;28;20236;-51
2023/04/02 00:56:25;;;;;;;6.20;4.27;;;;;;;;;;5032046;28;20305;-54
2023/04/02 00:58:53;;;;;;;5.70;4.03;;;;;;;;;;5030961;28;20248;-52
2023/04/02 01:01:22;;;;;;;4.60;4.20;;;;;;;;;;5023284;28;20317;-51
2023/04/02 01:03:57;;;;;;;3.97;3.60;;;;;;;;;;5031803;28;20753;-53
2023/04/02 01:06:24;;;;;;;4.10;3.80;;;;;;;;;;5019474;28;22246;-54
2023/04/02 01:09:05;;;;;;;5.40;3.73;;;;;;;;;;5030454;28;20244;-52
2023/04/02 01:11:38;;;;;;;4.63;4.23;;;;;;;;;;5027115;28;20886;-53
2023/04/02 01:14:09;;;;;;;5.53;4.00;;;;;;;;;;5017012;28;20232;-51
2023/04/02 01:16:41;;;;;;;6.30;4.23;;;;;;;;;;5033107;28;20298;-54
2023/04/02 01:19:13;;;;;;;4.40;4.00;;;;;;;;;;5017428;28;20244;-52
2023/04/02 01:21:52;;;;;;;4.10;3.80;;;;;;;;;;5029521;28;20254;-54
2023/04/02 01:24:20;;;;;;;8.00;4.87;;;;;;;;;;5014698;28;22081;-57
2023/04/02 01:26:51;;;;;;;5.13;3.67;;;;;;;;;;5032244;28;20603;-54
2023/04/02 01:29:21;;;;;;;5.47;4.67;;;;;;;;;;5020451;28;20237;-53
2023/04/02 01:31:48;;;;;;;3.93;3.63;;;;;;;;;;5024650;28;20239;-51
2023/04/02 01:34:16;;;;;;;5.20;4.70;;;;;;;;;;5019845;28;20695;-52
2023/04/02 01:36:48;;;;;;;4.40;4.00;;;;;;;;;;5024339;28;20427;-53
2023/04/02 01:39:20;;;;;;;4.80;4.37;;;;;;;;;;5020075;28;20342;-52
2023/04/02 01:41:49;;;;;;;5.67;4.07;;;;;;;;;;5037901;28;20255;-55
2023/04/02 01:44:19;;;;;;;4.43;4.03;;;;;;;;;;5031371;28;20240;-53
2023/04/02 01:46:49;;;;;;;4.10;3.50;;;;;;;;;;5027943;28;20235;-53
2023/04/02 01:49:18;;;;;;;4.23;3.83;;;;;;;;;;5034796;28;20244;-51
2023/04/02 01:51:46;;;;;;;4.47;3.70;;;;;;;;;;5044037;28;20298;-53
2023/04/02 01:54:15;;;;;;;4.20;3.90;;;;;;;;;;5042752;28;20227;-51
2023/04/02 01:56:42;;;;;;;4.10;3.73;;;;;;;;;;5044556;28;20768;-52
2023/04/02 01:59:10;;;;;;;3.40;3.10;;;;;;;;;;5034065;28;20665;-52
2023/04/02 02:01:38;;;;;;;4.30;3.07;;;;;;;;;;5023169;28;20243;-52
2023/04/02 02:04:07;;;;;;;3.17;2.57;;;;;;;;;;5018360;28;20335;-52
2023/04/02 02:06:33;;;;;;;3.50;3.10;;;;;;;;;;5023786;28;20248;-52
2023/04/02 02:09:02;;;;;;;4.37;3.27;;;;;;;;;;5022459;28;20991;-53
2023/04/02 02:11:29;;;;;;;5.47;3.73;;;;;;;;;;5024990;28;20244;-52
2023/04/02 02:13:57;;;;;;;5.10;3.77;;;;;;;;;;5019999;28;20719;-52
2023/04/02 02:16:26;;;;;;;3.40;3.07;;;;;;;;;;5034525;28;20262;-54
2023/04/02 02:18:53;;;;;;;5.50;3.77;;;;;;;;;;5042869;28;20319;-52
2023/04/02 02:21:28;;;;;;;3.30;3.00;;;;;;;;;;5044373;28;20263;-52
2023/04/02 02:23:55;;;;;;;3.70;3.37;;;;;;;;;;5043269;28;20237;-53
2023/04/02 02:26:23;;;;;;;3.50;3.20;;;;;;;;;;5010903;28;20239;-50
2023/04/02 02:28:50;;;;;;;4.10;3.33;;;;;;;;;;5023556;28;20243;-53
2023/04/02 02:31:21;;;;;;;3.43;3.10;;;;;;;;;;5017867;28;20229;-53
2023/04/02 02:33:50;;;;;;;3.10;2.90;;;;;;;;;;5024628;28;20236;-52
2023/04/02 02:36:21;;;;;;;3.93;3.50;;;;;;;;;;5026033;28;20232;-54
2023/04/02 02:38:51;;;;;;;4.43;3.40;;;;;;;;;;5031997;28;20232;-53
2023/04/02 02:41:21;;;;;;;5.30;3.57;;;;;;;;;;5028154;28;20725;-50
2023/04/02 02:43:52;;;;;;;3.53;3.20;;;;;;;;;;5028280;28;20229;-52
2023/04/02 02:46:20;;;;;;;3.90;3.60;;;;;;;;;;5027214;28;20242;-54
2023/04/02 02:48:47;;;;;;;2.70;2.50;;;;;;;;;;5027746;28;20236;-54
2023/04/02 02:51:17;;;;;;;4.23;2.87;;;;;;;;;;5035234;28;20227;-51
2023/04/02 02:53:46;;;;;;;4.37;4.03;;;;;;;;;;5040383;28;20234;-52
2023/04/02 02:56:14;;;;;;;4.20;2.93;;;;;;;;;;5043727;28;20262;-52
2023/04/02 02:58:41;;;;;;;3.90;3.30;;;;;;;;;;5038023;28;20300;-53
2023/04/02 03:01:08;;;;;;;3.50;3.20;;;;;;;;;;5032781;28;21383;-52
2023/04/02 03:03:35;;;;;;;3.90;3.53;;;;;;;;;;5028944;28;20315;-53
2023/04/02 03:06:04;;;;;;;4.13;2.90;;;;;;;;;;5041797;28;20227;-52
2023/04/02 03:08:33;;;;;;;7.27;3.37;;;;;;;;;;5041711;28;20293;-53
2023/04/02 03:11:01;;;;;;;3.20;3.00;;;;;;;;;;5039289;28;20239;-52
2023/04/02 03:13:34;;;;;;;3.53;2.83;;;;;;;;;;5034198;28;20328;-51
2023/04/02 03:16:02;;;;;;;3.40;2.80;;;;;;;;;;5026490;28;20271;-52
2023/04/02 03:18:34;;;;;;;3.20;2.70;;;;;;;;;;5038837;28;20782;-52
2023/04/02 03:21:03;;;;;;;3.40;2.83;;;;;;;;;;5045225;28;20236;-52
2023/04/02 03:23:31;;;;;;;4.90;3.10;;;;;;;;;;5046854;28;20232;-52
2023/04/02 03:25:59;;;;;;;2.87;2.43;;;;;;;;;;5047574;28;20241;-52
2023/04/02 03:28:27;;;;;;;3.33;3.03;;;;;;;;;;5036923;28;20331;-52
2023/04/02 03:30:58;;;;;;;4.77;3.10;;;;;;;;;;5027573;28;20236;-52
2023/04/02 03:33:26;;;;;;;9.63;3.17;;;;;;;;;;5026679;28;20233;-52
2023/04/02 03:35:55;;;;;;;2.87;2.67;;;;;;;;;;5027514;28;20317;-53
2023/04/02 03:38:24;;;;;;;4.47;3.10;;;;;;;;;;5027147;28;20251;-52
2023/04/02 03:40:55;;;;;;;3.43;2.63;;;;;;;;;;5025453;28;20705;-52
2023/04/02 03:43:24;;;;;;;4.53;3.20;;;;;;;;;;5027095;28;20243;-52
2023/04/02 03:45:52;;;;;;;3.63;2.93;;;;;;;;;;5026389;28;20228;-53
2023/04/02 03:48:25;;;;;;;4.13;2.40;;;;;;;;;;5025821;28;20340;-52
2023/04/02 03:50:54;;;;;;;3.57;2.27;;;;;;;;;;5019811;28;20238;-52
2023/04/02 03:53:22;;;;;;;4.53;2.33;;;;;;;;;;5026893;28;20293;-52
2023/04/02 03:55:49;;;;;;;3.40;2.60;;;;;;;;;;5026121;28;20328;-53
2023/04/02 03:58:18;;;;;;;3.23;2.23;;;;;;;;;;5026604;28;20260;-52
2023/04/02 04:00:48;;;;;;;4.43;3.30;;;;;;;;;;5042742;28;20752;-53
2023/04/02 04:03:16;;;;;;;3.17;2.80;;;;;;;;;;5042496;28;20769;-52
2023/04/02 04:05:47;;;;;;;3.20;2.90;;;;;;;;;;5037869;28;20227;-51
2023/04/02 04:08:16;;;;;;;4.53;2.57;;;;;;;;;;5034743;28;20721;-51
2023/04/02 04:10:43;;;;;;;3.87;3.00;;;;;;;;;;5025668;28;20268;-51
2023/04/02 04:13:12;;;;;;;4.37;2.77;;;;;;;;;;5034526;28;20704;-52
2023/04/02 04:15:40;;;;;;;2.33;2.13;;;;;;;;;;5036976;28;20242;-52
2023/04/02 04:18:12;;;;;;;4.20;2.67;;;;;;;;;;5046579;28;20340;-50
2023/04/02 04:20:44;;;;;;;6.60;3.03;;;;;;;;;;5045886;28;20238;-53
2023/04/02 04:23:17;;;;;;;4.07;2.73;;;;;;;;;;5045730;28;20238;-52
2023/04/02 04:25:44;;;;;;;4.03;2.33;;;;;;;;;;5046761;28;20731;-50
2023/04/02 04:28:15;;;;;;;4.13;2.80;;;;;;;;;;5034241;28;20261;-52
2023/04/02 04:30:49;;;;;;;4.47;3.30;;;;;;;;;;5045201;28;20227;-50
2023/04/02 04:33:21;;;;;;;7.27;3.57;;;;;;;;;;5045981;28;20621;-52
2023/04/02 04:35:49;;;;;;;2.80;2.50;;;;;;;;;;5046065;28;20234;-52
2023/04/02 04:38:20;;;;;;;3.13;2.83;;;;;;;;;;5045256;28;20242;-52
2023/04/02 04:40:52;;;;;;;3.37;3.07;;;;;;;;;;5025848;28;20240;-51
2023/04/02 04:43:20;;;;;;;5.70;2.97;;;;;;;;;;5031716;28;20228;-53
2023/04/02 04:45:50;;;;;;;3.20;2.90;;;;;;;;;;5025456;28;20235;-51
2023/04/02 04:48:18;;;;;;;3.37;3.07;;;;;;;;;;5021161;28;20241;-52
2023/04/02 04:50:47;;;;;;;3.43;3.10;;;;;;;;;;5029819;28;20236;-51
2023/04/02 04:53:16;;;;;;;4.63;3.00;;;;;;;;;;5023970;28;20249;-51
2023/04/02 04:55:44;;;;;;;2.90;2.60;;;;;;;;;;5023580;28;20233;-51
2023/04/02 04:58:16;;;;;;;5.67;3.53;;;;;;;;;;5024263;28;20236;-51
2023/04/02 05:00:51;;;;;;;3.40;3.07;;;;;;;;;;5016747;28;20239;-51
2023/04/02 05:03:21;;;;;;;4.33;2.60;;;;;;;;;;5036752;28;20726;-52
2023/04/02 05:05:48;;;;;;;3.60;2.80;;;;;;;;;;5040767;28;20231;-51
2023/04/02 05:08:17;;;;;;;7.70;4.03;;;;;;;;;;5032160;28;20240;-53
2023/04/02 05:10:48;;;;;;;3.17;2.90;;;;;;;;;;5023381;28;20224;-51
2023/04/02 05:13:17;;;;;;;3.83;2.70;;;;;;;;;;5032058;28;20228;-52
2023/04/02 05:15:46;;;;;;;3.47;2.70;;;;;;;;;;5024652;28;20248;-51
2023/04/02 05:18:19;;;;;;;3.67;3.07;;;;;;;;;;5025376;28;20241;-52
2023/04/02 05:20:48;;;;;;;3.03;2.73;;;;;;;;;;5029173;28;20225;-51
2023/04/02 05:23:17;;;;;;;5.13;3.17;;;;;;;;;;5025007;28;20232;-51
2023/04/02 05:25:52;;;;;;;2.77;2.50;;;;;;;;;;5027820;28;20255;-52
2023/04/02 05:28:21;;;;;;;2.60;2.13;;;;;;;;;;5036422;28;20266;-54
2023/04/02 05:30:51;;;;;;;2.50;2.07;;;;;;;;;;5034760;28;20294;-50
2023/04/02 05:33:20;;;;;;;5.03;2.30;;;;;;;;;;5039765;28;20243;-52
2023/04/02 05:35:49;;;;;;;4.67;2.37;;;;;;;;;;5041307;28;20230;-51
2023/04/02 05:38:19;;;;;;;4.20;2.90;;;;;;;;;;5039656;28;20236;-51
2023/04/02 05:40:48;;;;;;;1.73;1.63;;;;;;;;;;5040557;28;20231;-52
2023/04/02 05:43:17;;;;;;;3.43;2.13;;;;;;;;;;5040445;28;20227;-51
2023/04/02 05:45:46;;;;;;;2.37;2.13;;;;;;;;;;5024298;28;20683;-50
2023/04/02 05:48:16;;;;;;;2.10;1.60;;;;;;;;;;5023656;28;20244;-52
2023/04/02 05:50:45;;;;;;;2.57;2.00;;;;;;;;;;5038560;28;20228;-51
2023/04/02 05:53:14;;;;;;;4.30;1.53;;;;;;;;;;5043792;28;20232;-51
2023/04/02 05:55:49;;;;;;;3.70;1.77;;;;;;;;;;5043650;28;20232;-51
2023/04/02 05:58:23;;;;;;;1.50;1.33;;;;;;;;;;5043714;28;20811;-51
2023/04/02 06:01:06;;;;;;;2.83;1.50;;;;;;;;;;5043953;28;20696;-54
2023/04/02 06:03:38;;;;;;;2.53;2.33;;;;;;;;;;5043288;28;20785;-52
2023/04/02 06:06:06;;;;;;;3.90;1.97;;;;;;;;;;5039245;28;20247;-53
2023/04/02 06:08:36;;;;;;;2.83;1.50;;;;;;;;;;5044426;28;20246;-52
2023/04/02 06:11:06;;;;;;;2.97;1.47;;;;;;;;;;5046899;28;20318;-52
2023/04/02 06:13:35;;;;;;;2.83;1.40;;;;;;;;;;5048061;28;20791;-53
2023/04/02 06:16:02;;;;;;;2.27;1.80;;;;;;;;;;5047952;28;20255;-52
2023/04/02 06:18:30;;;;;;;3.47;1.97;;;;;;;;;;5047052;28;20247;-51
2023/04/02 06:20:57;;;;;;;3.77;2.00;;;;;;;;;;5048700;28;20263;-52
2023/04/02 06:23:29;;;;;;;4.77;1.37;;;;;;;;;;5047866;28;20764;-52
2023/04/02 06:25:59;;;;;;;1.50;1.03;;;;;;;;;;5048750;28;20235;-52
2023/04/02 06:28:27;;;;;;;2.70;1.83;;;;;;;;;;5044013;28;20240;-52
2023/04/02 06:30:58;;;;;;;2.20;1.57;;;;;;;;;;5048435;28;20650;-51
2023/04/02 06:33:24;;;;;;;4.50;1.93;;;;;;;;;;5044359;28;20323;-51
2023/04/02 06:35:52;;;;;;;2.20;1.40;;;;;;;;;;5048481;28;20258;-52
2023/04/02 06:38:20;;;;;;;1.63;1.40;;;;;;;;;;5047366;28;20244;-52
2023/04/02 06:40:49;;;;;;;1.53;1.30;;;;;;;;;;5046595;28;20955;-51
2023/04/02 06:43:17;;;;;;;1.97;1.30;;;;;;;;;;5047101;28;20235;-51
2023/04/02 06:45:46;;;;;;;2.33;1.77;;;;;;;;;;5027527;28;20252;-52
2023/04/02 06:48:16;;;;;;;3.17;1.83;;;;;;;;;;5036730;28;20259;-51
2023/04/02 06:50:45;;;;;;;4.03;1.40;;;;;;;;;;5045243;28;20228;-54
2023/04/02 06:53:18;;;;;;;3.40;1.30;;;;;;;;;;5047117;28;20706;-53
2023/04/02 06:55:46;;;;;;;2.83;1.40;;;;;;;;;;5027606;28;20244;-53
2023/04/02 06:58:14;;;;;;;3.37;1.83;;;;;;;;;;5041806;28;20320;-52
2023/04/02 07:00:42;;;;;;;4.63;1.13;;;;;;;;;;5030066;28;20263;-51
2023/04/02 07:03:13;;;;;;;2.90;1.77;;;;;;;;;;5035011;28;20242;-52
2023/04/02 07:05:41;;;;;;;2.73;1.80;;;;;;;;;;5033752;28;20232;-52
2023/04/02 07:08:08;;;;;;;4.97;1.30;;;;;;;;;;5045253;28;20256;-50
2023/04/02 07:10:35;;;;;;;3.27;1.40;;;;;;;;;;5037819;28;20232;-51
2023/04/02 07:13:01;;;;;;;2.33;1.30;;;;;;;;;;5034917;28;20231;-52
2023/04/02 07:15:31;;;;;;;2.27;1.20;;;;;;;;;;5043884;28;20315;-52
2023/04/02 07:17:58;;;;;;;2.70;1.13;;;;;;;;;;5038503;28;20256;-50
2023/04/02 07:20:27;;;;;;;2.97;1.97;;;;;;;;;;5047570;28;20259;-51
2023/04/02 07:22:55;;;;;;;2.20;1.43;;;;;;;;;;5044186;28;20725;-50
2023/04/02 07:25:21;;;;;;;2.00;1.33;;;;;;;;;;5045392;28;20232;-51
2023/04/02 07:27:48;;;;;;;4.80;1.47;;;;;;;;;;5046752;28;20629;-51
2023/04/02 07:30:15;;;;;;;1.37;1.27;;;;;;;;;;5045629;28;20313;-51
2023/04/02 07:32:41;;;;;;;2.20;1.30;;;;;;;;;;5044928;28;20239;-52
2023/04/02 07:35:09;;;;;;;1.30;1.13;;;;;;;;;;5044007;28;20721;-52
2023/04/02 07:37:35;;;;;;;2.83;1.80;;;;;;;;;;5039070;28;20240;-50
2023/04/02 07:40:05;;;;;;;3.03;1.47;;;;;;;;;;5036095;28;20239;-51
2023/04/02 07:42:31;;;;;;;1.63;1.20;;;;;;;;;;5026139;28;20229;-52
2023/04/02 07:44:58;;;;;;;2.27;1.30;;;;;;;;;;5023515;28;20233;-53
2023/04/02 07:47:25;;;;;;;3.37;1.27;;;;;;;;;;5022385;28;20742;-51
2023/04/02 07:49:53;;;;;;;3.97;1.80;;;;;;;;;;5034527;28;20234;-52
2023/04/02 07:52:20;;;;;;;2.10;1.43;;;;;;;;;;5044084;28;20289;-52
2023/04/02 07:54:46;;;;;;;1.90;1.20;;;;;;;;;;5044000;28;20238;-51
2023/04/02 07:57:14;;;;;;;1.40;1.30;;;;;;;;;;5046009;28;20246;-51
2023/04/02 07:59:41;;;;;;;1.20;1.10;;;;;;;;;;5033405;28;20266;-52
2023/04/02 08:02:18;;;;;;;3.53;1.40;;;;;;;;;;5025701;28;20315;-54
2023/04/02 08:04:44;;;;;;;1.37;1.27;;;;;;;;;;5036722;28;20647;-51
2023/04/02 08:07:10;;;;;;;2.00;1.27;;;;;;;;;;5046542;28;20336;-50
2023/04/02 08:09:37;;;;;;;1.63;1.43;;;;;;;;;;5043452;28;20242;-51
2023/04/02 08:12:04;;;;;;;2.47;1.43;;;;;;;;;;5046374;28;20736;-50
2023/04/02 08:14:32;;;;;;;2.53;1.37;;;;;;;;;;5042541;28;20224;-51
2023/04/02 08:16:58;;;;;;;2.97;1.83;;;;;;;;;;5044610;28;20240;-52
2023/04/02 08:19:25;;;;;;;1.43;1.30;;;;;;;;;;5044994;28;20240;-51
2023/04/02 08:21:52;;;;;;;2.20;1.30;;;;;;;;;;5043980;28;20228;-52
2023/04/02 08:24:19;;;;;;;2.70;1.43;;;;;;;;;;5045823;28;20255;-51
2023/04/02 08:26:46;;;;;;;4.57;1.23;;;;;;;;;;5027481;28;20231;-50
2023/04/02 08:29:15;;;;;;;3.10;1.90;;;;;;;;;;5023420;28;20607;-52
2023/04/02 08:31:44;;;;;;;2.60;1.60;;;;;;;;;;5024603;28;20236;-52
2023/04/02 08:34:10;;;;;;;2.47;1.63;;;;;;;;;;5022393;28;20669;-52
2023/04/02 08:36:38;;;;;;;1.67;1.40;;;;;;;;;;5025009;28;20244;-51
2023/04/02 08:39:09;;;;;;;1.30;1.20;;;;;;;;;;5021442;28;20278;-53
2023/04/02 08:41:37;;;;;;;1.47;1.37;;;;;;;;;;5026408;28;20236;-51
2023/04/02 08:44:14;;;;;;;1.83;1.50;;;;;;;;;;5021431;28;20868;-51
2023/04/02 08:46:43;;;;;;;4.40;2.07;;;;;;;;;;5026728;28;20255;-51
2023/04/02 08:49:13;;;;;;;4.73;1.80;;;;;;;;;;5034931;28;20240;-50
2023/04/02 08:51:40;;;;;;;2.27;1.60;;;;;;;;;;5042685;28;20240;-51
2023/04/02 08:54:09;;;;;;;2.27;1.43;;;;;;;;;;5044931;28;20571;-52
2023/04/02 08:56:39;;;;;;;3.27;2.07;;;;;;;;;;5043995;28;20281;-52
2023/04/02 08:59:12;;;;;;;1.70;1.43;;;;;;;;;;5044452;28;20236;-52
2023/04/02 09:01:43;;;;;;;3.57;1.37;;;;;;;;;;5039596;28;20224;-50
2023/04/02 09:04:15;;;;;;;2.60;1.63;;;;;;;;;;5044828;28;20779;-53
2023/04/02 09:06:42;;;;;;;2.33;1.20;;;;;;;;;;5044882;28;20232;-51
2023/04/02 09:09:09;;;;;;;6.27;2.73;;;;;;;;;;5044156;28;20277;-52
2023/04/02 09:11:40;;;;;;;1.97;1.53;;;;;;;;;;5043469;28;20250;-51
2023/04/02 09:14:13;;;;;;;3.90;1.63;;;;;;;;;;5043568;28;20912;-52
2023/04/02 09:16:42;;;;;;;2.67;1.00;;;;;;;;;;5044816;28;20344;-52
2023/04/02 09:22:08;;;;;;;2.80;1.30;;;;;;;;;;5081077;27;20580;-52
2023/04/02 09:24:36;;;;;;;4.10;1.40;;;;;;;;;;5075219;28;20231;-51
2023/04/02 09:27:03;;;;;;;2.27;1.10;;;;;;;;;;5077705;28;20234;-51
2023/04/02 09:29:47;;;;;;;1.37;1.03;;;;;;;;;;5072064;28;20258;-52
2023/04/02 09:32:26;;;;;;;1.73;1.20;;;;;;;;;;5065119;28;20227;-52
2023/04/02 09:35:04;;;;;;;2.03;1.43;;;;;;;;;;5060412;28;20227;-52
2023/04/02 09:37:32;;;;;;;2.53;1.50;;;;;;;;;;5068439;28;20284;-52
2023/04/02 09:40:10;;;;;;;1.87;1.67;;;;;;;;;;5051726;28;20278;-52
2023/04/02 09:42:37;;;;;;;2.43;1.53;;;;;;;;;;5070906;28;20235;-52
2023/04/02 09:45:14;;;;;;;3.70;1.63;;;;;;;;;;5061409;28;20320;-58
2023/04/02 09:47:41;;;;;;;3.77;1.07;;;;;;;;;;5059334;28;20299;-50
2023/04/02 09:50:28;;;;;;;4.00;1.50;;;;;;;;;;5057786;28;20223;-52
2023/04/02 09:52:56;;;;;;;2.40;2.00;;;;;;;;;;5049257;28;20314;-52
2023/04/02 09:55:25;;;;;;;1.47;0.90;;;;;;;;;;5047002;28;20224;-52
2023/04/02 09:58:05;;;;;;;1.37;0.93;;;;;;;;;;5064055;28;20226;-50
2023/04/02 10:00:33;;;;;;;2.63;1.33;;;;;;;;;;5063627;28;20755;-52
2023/04/02 10:03:02;;;;;;;3.93;1.30;;;;;;;;;;5063068;28;20231;-52
2023/04/02 10:05:30;;;;;;;4.00;1.40;;;;;;;;;;5053872;28;20228;-52
2023/04/02 10:08:05;;;;;;;2.07;0.97;;;;;;;;;;5047506;28;20243;-53
2023/04/02 10:10:34;;;;;;;2.17;0.93;;;;;;;;;;5072344;28;20690;-52
2023/04/02 10:13:03;;;;;;;3.80;1.53;;;;;;;;;;5060199;28;20514;-52
2023/04/02 10:15:31;;;;;;;4.10;0.80;;;;;;;;;;5069497;28;20926;-52
2023/04/02 10:18:01;;;;;;;3.07;1.00;;;;;;;;;;5072789;28;20241;-52
2023/04/02 10:20:29;;;;;;;1.40;1.10;;;;;;;;;;5061681;28;20238;-51
2023/04/02 10:22:56;;;;;;;2.13;1.20;;;;;;;;;;5072081;28;20239;-52
2023/04/02 10:25:27;;;;;;;2.73;0.97;;;;;;;;;;5074554;28;20705;-52
2023/04/02 10:27:57;;;;;;;3.13;1.10;;;;;;;;;;5066899;28;20320;-53
2023/04/02 10:30:26;;;;;;;2.10;0.83;;;;;;;;;;5072836;28;20234;-52
2023/04/02 10:32:55;;;;;;;4.27;1.10;;;;;;;;;;5049119;28;20399;-51
2023/04/02 10:35:30;;;;;;;4.53;1.70;;;;;;;;;;5063601;28;20231;-53
2023/04/02 10:38:07;;;;;;;2.07;1.17;;;;;;;;;;5065860;28;20270;-51
2023/04/02 10:40:36;;;;;;;2.20;1.13;;;;;;;;;;5063288;28;20320;-51
2023/04/02 10:43:20;;;;;;;5.00;1.17;;;;;;;;;;5060573;28;20310;-51
2023/04/02 10:45:50;;;;;;;1.23;1.10;;;;;;;;;;5048276;28;20247;-51
2023/04/02 10:48:20;;;;;;;4.10;1.30;;;;;;;;;;5043056;28;20417;-51
2023/04/02 10:50:49;;;;;;;4.23;1.37;;;;;;;;;;5047060;28;20228;-52
2023/04/02 10:53:17;;;;;;;4.03;1.80;;;;;;;;;;5046764;28;20231;-51
2023/04/02 10:55:48;;;;;;;3.47;1.27;;;;;;;;;;5064033;28;20282;-53
2023/04/02 10:58:18;;;;;;;3.67;1.40;;;;;;;;;;5066265;28;20296;-53
2023/04/02 11:00:45;;;;;;;2.10;1.33;;;;;;;;;;5059367;28;20238;-53
2023/04/02 11:03:14;;;;;;;4.83;1.13;;;;;;;;;;5066783;28;20235;-53
2023/04/02 11:05:43;;;;;;;2.90;1.27;;;;;;;;;;5047616;28;20349;-52
2023/04/02 11:08:14;;;;;;;3.20;1.53;;;;;;;;;;5037711;28;20259;-50
2023/04/02 11:10:44;;;;;;;1.47;1.13;;;;;;;;;;5048957;28;20243;-50
2023/04/02 11:13:15;;;;;;;2.47;1.33;;;;;;;;;;5047505;28;20242;-51
2023/04/02 11:15:42;;;;;;;2.00;1.40;;;;;;;;;;5043797;28;20235;-51
2023/04/02 11:18:20;;;;;;;2.73;1.20;;;;;;;;;;5056498;28;20238;-52
2023/04/02 11:21:04;;;;;;;4.80;1.27;;;;;;;;;;5038466;28;20232;-52
2023/04/02 11:23:35;;;;;;;1.17;1.07;;;;;;;;;;5035590;28;20698;-51
2023/04/02 11:26:20;;;;;;;3.47;1.33;;;;;;;;;;5035645;28;20236;-52
2023/04/02 11:28:48;;;;;;;1.60;1.20;;;;;;;;;;5053794;28;20231;-52
2023/04/02 11:31:20;;;;;;;2.10;1.10;;;;;;;;;;5048652;28;20231;-51
2023/04/02 11:33:47;;;;;;;1.70;1.20;;;;;;;;;;5049074;28;20262;-51
2023/04/02 11:36:37;;;;;;;5.17;1.47;;;;;;;;;;5049710;28;20228;-50
2023/04/02 11:39:04;;;;;;;3.20;1.23;;;;;;;;;;5030399;28;20243;-50
2023/04/02 11:42:04;;;;;;;3.00;1.20;;;;;;;;;;5058611;28;20237;-51
2023/04/02 11:44:32;;;;;;;4.30;1.50;;;;;;;;;;4981208;28;20689;-50
2023/04/02 11:47:16;;;;;;;4.93;1.90;;;;;;;;;;4980616;28;20340;-50
2023/04/02 11:50:10;;;;;;;2.17;1.33;;;;;;;;;;5009487;28;20254;-51
2023/04/02 11:52:41;;;;;;;6.40;1.50;;;;;;;;;;5030730;28;20683;-50
2023/04/02 11:55:27;;;;;;;4.40;1.53;;;;;;;;;;5042849;28;20277;-52
2023/04/02 11:58:12;;;;;;;2.30;1.30;;;;;;;;;;5031891;28;20240;-52
2023/04/02 12:01:03;;;;;;;2.07;1.67;;;;;;;;;;5031519;28;20697;-53
2023/04/02 12:03:47;;;;;;;2.13;1.57;;;;;;;;;;5024439;28;20240;-51
2023/04/02 12:06:26;;;;;;;2.90;1.87;;;;;;;;;;5043350;28;20227;-51
2023/04/02 12:08:57;;;;;;;4.60;1.60;;;;;;;;;;5038899;28;20240;-53
2023/04/02 12:11:33;;;;;;;3.83;1.23;;;;;;;;;;5045113;28;20239;-52
2023/04/02 12:13:59;;;;;;;5.03;1.63;;;;;;;;;;5043647;28;20260;-53
2023/04/02 12:16:30;;;;;;;3.10;1.60;;;;;;;;;;5040112;28;20323;-53
2023/04/02 12:18:56;;;;;;;3.90;1.50;;;;;;;;;;5041499;28;20235;-52
2023/04/02 12:21:26;;;;;;;7.63;1.87;;;;;;;;;;5042699;28;20326;-53
2023/04/02 12:23:54;;;;;;;4.17;1.40;;;;;;;;;;5038784;28;20240;-54
2023/04/02 12:26:35;;;;;;;2.00;1.33;;;;;;;;;;5042587;28;20765;-52
2023/04/02 12:29:22;;;;;;;5.37;1.17;;;;;;;;;;5043652;28;20274;-51
2023/04/02 12:31:48;;;;;;;3.00;1.37;;;;;;;;;;5045498;28;20907;-51
2023/04/02 12:34:16;;;;;;;1.97;1.27;;;;;;;;;;5042506;28;20231;-52
2023/04/02 12:36:52;;;;;;;2.93;1.07;;;;;;;;;;5042208;28;20618;-52
2023/04/02 12:39:19;;;;;;;1.53;1.20;;;;;;;;;;5043487;28;20288;-52
2023/04/02 12:41:46;;;;;;;2.70;1.20;;;;;;;;;;5040755;28;20232;-52
2023/04/02 12:44:16;;;;;;;2.60;1.33;;;;;;;;;;5041245;28;20236;-52
2023/04/02 12:46:43;;;;;;;2.73;0.93;;;;;;;;;;5046333;28;20243;-51
2023/04/02 12:49:16;;;;;;;2.47;1.57;;;;;;;;;;5039099;28;20240;-51
2023/04/02 12:51:42;;;;;;;2.30;1.00;;;;;;;;;;5041019;28;20239;-55
2023/04/02 12:54:13;;;;;;;2.83;1.27;;;;;;;;;;5039985;28;20232;-51
2023/04/02 12:56:40;;;;;;;4.67;1.27;;;;;;;;;;5043513;28;20231;-51
2023/04/02 12:59:06;;;;;;;1.27;1.10;;;;;;;;;;5043988;28;20339;-52
2023/04/02 13:01:33;;;;;;;1.20;1.10;;;;;;;;;;5042448;28;20238;-52
2023/04/02 13:04:00;;;;;;;3.20;1.30;;;;;;;;;;5043545;28;20230;-52
2023/04/02 13:06:27;;;;;;;3.00;1.00;;;;;;;;;;5041496;28;20230;-51
2023/04/02 13:08:54;;;;;;;1.57;1.00;;;;;;;;;;5042683;28;20267;-51
2023/04/02 13:11:22;;;;;;;3.27;1.10;;;;;;;;;;5042251;28;20710;-53
2023/04/02 13:13:49;;;;;;;3.70;1.30;;;;;;;;;;5049347;28;20259;-52
2023/04/02 13:16:32;;;;;;;2.07;1.30;;;;;;;;;;5044689;28;20324;-51
2023/04/02 13:19:29;;;;;;;1.57;0.67;;;;;;;;;;5044888;28;20258;-51
2023/04/02 13:21:56;;;;;;;3.63;1.00;;;;;;;;;;4980714;28;20239;-50
2023/04/02 13:24:24;;;;;;;2.17;1.10;;;;;;;;;;5030348;28;20232;-51
2023/04/02 13:26:54;;;;;;;2.57;1.27;;;;;;;;;;5048624;28;20855;-51
2023/04/02 13:29:23;;;;;;;1.77;1.57;;;;;;;;;;5047214;28;20232;-53
2023/04/02 13:31:50;;;;;;;2.07;1.23;;;;;;;;;;5046814;28;20240;-51
2023/04/02 13:34:17;;;;;;;3.40;1.10;;;;;;;;;;5046467;28;20231;-56
2023/04/02 13:36:43;;;;;;;2.63;1.37;;;;;;;;;;5038676;28;20656;-52
2023/04/02 13:39:10;;;;;;;2.00;0.97;;;;;;;;;;5039736;28;20240;-51
2023/04/02 13:41:39;;;;;;;3.03;0.70;;;;;;;;;;5042197;28;20326;-51
2023/04/02 13:44:07;;;;;;;1.67;0.80;;;;;;;;;;5044275;28;20239;-50
2023/04/02 13:46:34;;;;;;;2.87;1.10;;;;;;;;;;5042291;28;20236;-53
2023/04/02 13:49:01;;;;;;;2.53;1.33;;;;;;;;;;5041220;28;20235;-51
2023/04/02 13:51:31;;;;;;;1.43;0.97;;;;;;;;;;5045068;28;20228;-52
2023/04/02 13:53:58;;;;;;;2.00;1.20;;;;;;;;;;5041532;28;20315;-51
2023/04/02 13:56:24;;;;;;;0.93;0.83;;;;;;;;;;5041021;28;20610;-52
2023/04/02 13:58:51;;;;;;;2.40;1.30;;;;;;;;;;5045595;28;20236;-52
2023/04/02 14:01:20;;;;;;;1.50;1.00;;;;;;;;;;5042492;28;20801;-51
2023/04/02 14:03:47;;;;;;;3.17;1.20;;;;;;;;;;5045479;28;20239;-51
2023/04/02 14:06:17;;;;;;;1.43;1.00;;;;;;;;;;5041151;28;20227;-51
2023/04/02 14:08:49;;;;;;;1.17;0.87;;;;;;;;;;5049132;28;20242;-50
2023/04/02 14:11:20;;;;;;;3.97;0.87;;;;;;;;;;5041580;28;20323;-50
2023/04/02 14:14:02;;;;;;;2.43;1.10;;;;;;;;;;5046581;28;20311;-52
2023/04/02 14:16:40;;;;;;;4.23;1.17;;;;;;;;;;5041500;28;20228;-51
2023/04/02 14:19:17;;;;;;;1.47;0.70;;;;;;;;;;5052394;28;20779;-51
2023/04/02 14:21:51;;;;;;;1.37;0.73;;;;;;;;;;5048748;28;20238;-51
2023/04/02 14:24:21;;;;;;;2.73;1.10;;;;;;;;;;5062201;28;20302;-50
2023/04/02 14:26:52;;;;;;;3.13;1.10;;;;;;;;;;5057034;28;20227;-50
2023/04/02 14:29:23;;;;;;;4.00;1.13;;;;;;;;;;5051415;28;20325;-51
2023/04/02 14:31:55;;;;;;;2.30;0.73;;;;;;;;;;5045335;28;20789;-51
2023/04/02 14:34:27;;;;;;;2.30;1.30;;;;;;;;;;5043333;28;20645;-51
2023/04/02 14:37:00;;;;;;;3.97;0.93;;;;;;;;;;5038132;28;20306;-50
2023/04/02 14:39:34;;;;;;;2.03;1.13;;;;;;;;;;5042836;28;20236;-51
2023/04/02 14:42:03;;;;;;;2.00;1.03;;;;;;;;;;5034713;28;20629;-50
2023/04/02 14:44:34;;;;;;;2.63;1.10;;;;;;;;;;5039124;28;20234;-51
2023/04/02 14:47:09;;;;;;;4.47;0.90;;;;;;;;;;5039314;28;20761;-51
2023/04/02 14:49:38;;;;;;;2.10;1.13;;;;;;;;;;5045475;28;20231;-51
2023/04/02 14:52:09;;;;;;;1.10;1.00;;;;;;;;;;5046219;28;20656;-51
2023/04/02 14:54:37;;;;;;;2.70;0.80;;;;;;;;;;5041503;28;20236;-51
2023/04/02 14:57:05;;;;;;;1.10;1.00;;;;;;;;;;5036645;28;20242;-51
2023/04/02 14:59:34;;;;;;;3.40;1.23;;;;;;;;;;5035506;28;20611;-50
2023/04/02 15:02:07;;;;;;;2.53;1.00;;;;;;;;;;5039475;28;20258;-51
2023/04/02 15:04:37;;;;;;;4.60;1.03;;;;;;;;;;5048577;28;20232;-50